Terminal Aerodrome Forecast
Issued by NWS Lake Charles, LA

Home | Current Version | Previous Version | Text Only | Print | Product List | Glossary On
Versions: 1 2 3 4 5 6 7 8 9 10 11 12 13 14 15 16 17 18 19
000
FTUS44 KLCH 250520
TAFBPT
TAF
KBPT 250520Z 2506/2606 VRB20G30KT 1SM +TSRA BKN008CB OVC015
     FM250800 18012KT P6SM OVC008
     FM251300 22014G19KT P6SM VCSH OVC015
      TEMPO 2513/2515 3SM SHRA
     FM251700 25012KT P6SM SCT030
     FM260000 24006KT P6SM SCT250=

USA.gov is the U.S. government's official web portal to all federal, state and local government web resources and services.